Weather History for KPVC - November, 2012

Change the Weather History Date:

Saturday, November 3, 2012

  Actual Average Record
Temperature  
Mean Temperature 48 °F -  
Max Temperature 51 °F 52 °F 66 °F (1951)
Min Temperature 46 °F 42 °F 26 °F (2008)
Degree Days  
Heating Degree Days 16    
Moisture  
Dew Point 36 °F    
Average Humidity 63    
Maximum Humidity 76    
Minimum Humidity 50    
Precipitation  
Precipitation 0.00 in - - ()
Sea Level Pressure  
Sea Level Pressure 29.69 in    
Wind  
Wind Speed 15 mph (NW)    
Max Wind Speed 22 mph    
Max Gust Speed 30 mph    
Visibility 9 miles    
Events      
Averages and records for this station are not official NWS values.
T = Trace of Precipitation, MM = Missing Value Source: NWS Daily Summary

Daily Weather History Graph

Daily Weather History Graph

Search for Another Location

Airport or City:

Trip Planner

Search our weather history database for the weather conditions in past years. The results will help you decide how hot, cold, wet, or windy it might be!

Date:

Astronomy

Nov. 03, 2012 Rise Set
Actual Time 7:16 AM EDT 5:31 PM EDT
Civil Twilight 6:47 AM EDT 6:00 PM EDT
Nautical Twilight 6:14 AM EDT 6:33 PM EDT
Astronomical Twilight 5:41 AM EDT 7:06 PM EDT
Moon 9:08 PM EDT (11/3) 11:20 AM EDT (11/3)
Length of Visible Light 11h 13m
Length of Day
10h 14m
Waning Gibbous, 80% of the Moon is Illuminated
Nov 3
Waning Gibbous
Nov 6
Last Quarter
Nov 13
New
Nov 20
First Quarter
Nov 28
Full

Hourly Weather History & Observations

Time (EDT) Temp. Windchill Dew Point Humidity Pressure Visibility Wind Dir Wind Speed Gust Speed Precip Events Conditions
12:15 AM 48.2 °F - 35.6 °F 62% 29.60 in 10.0 mi NW 12.7 mph 20.7 mph N/A   Overcast
12:35 AM 48.2 °F - 35.6 °F 62% 29.60 in 10.0 mi NNW 15.0 mph 23.0 mph N/A   Overcast
1:15 AM 48.2 °F - 37.4 °F 66% 29.60 in 10.0 mi NW 11.5 mph 18.4 mph N/A   Mostly Cloudy
1:35 AM 48.2 °F - 35.6 °F 62% 29.60 in 9.0 mi NW 12.7 mph 20.7 mph N/A   Mostly Cloudy
2:35 AM 46.4 °F 39.5 °F 37.4 °F 71% 29.61 in 10.0 mi NW 17.3 mph - N/A   Overcast
2:55 AM 46.4 °F 40.7 °F 37.4 °F 71% 29.61 in 9.0 mi NW 12.7 mph 18.4 mph N/A   Overcast
3:15 AM 46.4 °F 41.5 °F 35.6 °F 66% 29.61 in 10.0 mi WNW 10.4 mph 18.4 mph N/A   Overcast
3:35 AM 46.4 °F 40.1 °F 37.4 °F 71% 29.61 in 10.0 mi NW 15.0 mph 19.6 mph N/A   Overcast
3:55 AM 46.4 °F 40.7 °F 35.6 °F 66% 29.61 in 10.0 mi NW 12.7 mph 18.4 mph N/A   Overcast
4:15 AM 46.4 °F 40.7 °F 37.4 °F 71% 29.61 in 10.0 mi NW 12.7 mph 18.4 mph N/A   Overcast
4:35 AM 46.4 °F 39.5 °F 37.4 °F 71% 29.61 in 10.0 mi NW 17.3 mph 20.7 mph N/A   Overcast
4:55 AM 46.4 °F 40.1 °F 35.6 °F 66% 29.62 in 9.0 mi NW 15.0 mph 19.6 mph N/A   Overcast
5:55 AM 46.4 °F 40.1 °F 37.4 °F 71% 29.63 in 9.0 mi NW 15.0 mph 20.7 mph N/A   Overcast
6:15 AM 46.4 °F 40.4 °F 37.4 °F 71% 29.64 in 8.0 mi NW 13.8 mph 19.6 mph N/A   Overcast
6:35 AM 46.4 °F 40.4 °F 37.4 °F 71% 29.64 in 10.0 mi NW 13.8 mph 19.6 mph N/A   Overcast
6:56 AM 46.4 °F 40.1 °F 37.4 °F 71% 29.65 in 10.0 mi NW 15.0 mph 18.4 mph N/A   Overcast
7:15 AM 46.4 °F 40.1 °F 39.2 °F 76% 29.65 in 10.0 mi NW 15.0 mph 20.7 mph N/A   Overcast
8:15 AM 46.4 °F 40.1 °F 37.4 °F 71% 29.67 in 8.0 mi NW 15.0 mph 19.6 mph N/A   Overcast
8:35 AM 46.4 °F 40.7 °F 37.4 °F 71% 29.68 in 7.0 mi NW 12.7 mph 17.3 mph N/A   Overcast
8:55 AM 48.2 °F - 37.4 °F 66% 29.69 in 7.0 mi NW 15.0 mph 20.7 mph N/A   Overcast
9:35 AM 48.2 °F - 37.4 °F 66% 29.69 in 8.0 mi NNW 15.0 mph 20.7 mph N/A   Overcast
9:55 AM 48.2 °F - 37.4 °F 66% 29.70 in 9.0 mi NNW 12.7 mph 19.6 mph N/A   Overcast
10:15 AM 48.2 °F - 37.4 °F 66% 29.70 in 9.0 mi NNW 12.7 mph 20.7 mph N/A   Overcast
10:35 AM 48.2 °F - 37.4 °F 66% 29.70 in 8.0 mi NW 13.8 mph 19.6 mph N/A   Overcast
10:55 AM 48.2 °F - 39.2 °F 71% 29.70 in 8.0 mi NW 16.1 mph 20.7 mph N/A   Overcast
11:15 AM 48.2 °F - 37.4 °F 66% 29.70 in 8.0 mi NNW 13.8 mph 20.7 mph N/A   Mostly Cloudy
11:55 AM 48.2 °F - 37.4 °F 66% 29.70 in 8.0 mi NW 13.8 mph 20.7 mph N/A   Overcast
12:15 PM 50.0 °F - 37.4 °F 62% 29.70 in 9.0 mi NW 16.1 mph 19.6 mph N/A   Overcast
12:35 PM 50.0 °F - 37.4 °F 62% 29.70 in 7.0 mi NW 13.8 mph 18.4 mph N/A   Overcast
12:55 PM 50.0 °F - 37.4 °F 62% 29.69 in 9.0 mi NW 18.4 mph - N/A   Overcast
1:15 PM 50.0 °F - 37.4 °F 62% 29.69 in 10.0 mi NW 13.8 mph 23.0 mph N/A   Overcast
1:35 PM 51.8 °F - 37.4 °F 58% 29.69 in 10.0 mi NW 13.8 mph 20.7 mph N/A   Overcast
1:55 PM 50.0 °F - 37.4 °F 62% 29.69 in 8.0 mi NW 16.1 mph - N/A   Overcast
2:15 PM 51.8 °F - 37.4 °F 58% 29.69 in 10.0 mi WNW 16.1 mph - N/A   Overcast
2:35 PM 51.8 °F - 37.4 °F 58% 29.69 in 9.0 mi NW 17.3 mph 24.2 mph N/A   Mostly Cloudy
2:55 PM 51.8 °F - 35.6 °F 54% 29.69 in 10.0 mi NW 15.0 mph 20.7 mph N/A   Clear
3:35 PM 51.8 °F - 35.6 °F 54% 29.70 in 10.0 mi NW 15.0 mph 19.6 mph N/A   Clear
3:55 PM 51.8 °F - 35.6 °F 54% 29.70 in 8.0 mi NW 13.8 mph 19.6 mph N/A   Clear
4:15 PM 51.8 °F - 35.6 °F 54% 29.71 in 9.0 mi WNW 18.4 mph 21.9 mph N/A   Scattered Clouds
4:35 PM 51.8 °F - 35.6 °F 54% 29.71 in 10.0 mi NW 16.1 mph 20.7 mph N/A   Scattered Clouds
4:55 PM 51.8 °F - 33.8 °F 50% 29.71 in 9.0 mi WNW 13.8 mph 21.9 mph N/A   Partly Cloudy
5:15 PM 50.0 °F - 35.6 °F 58% 29.71 in 9.0 mi WNW 16.1 mph 21.9 mph N/A   Partly Cloudy
5:55 PM 50.0 °F - 35.6 °F 58% 29.72 in 10.0 mi NW 15.0 mph 23.0 mph N/A   Clear
6:15 PM 50.0 °F - 35.6 °F 58% 29.73 in 9.0 mi WNW 17.3 mph 24.2 mph N/A   Scattered Clouds
6:35 PM 50.0 °F - 35.6 °F 58% 29.74 in 9.0 mi NW 17.3 mph 23.0 mph N/A   Partly Cloudy
6:55 PM 48.2 °F - 35.6 °F 62% 29.75 in 10.0 mi NW 18.4 mph 27.6 mph N/A   Clear
7:35 PM 48.2 °F - 35.6 °F 62% 29.75 in 10.0 mi WNW 21.9 mph 26.5 mph N/A   Clear
7:55 PM 48.2 °F - 33.8 °F 58% 29.76 in 10.0 mi WNW 20.7 mph 26.5 mph N/A   Clear
8:15 PM 48.2 °F - 33.8 °F 58% 29.76 in 10.0 mi NW 18.4 mph 27.6 mph N/A   Partly Cloudy
8:35 PM 48.2 °F - 33.8 °F 58% 29.76 in 10.0 mi NW 18.4 mph 25.3 mph N/A   Partly Cloudy
9:15 PM 48.2 °F - 32.0 °F 54% 29.77 in 10.0 mi NW 15.0 mph 29.9 mph N/A   Partly Cloudy
9:35 PM 48.2 °F - 33.8 °F 58% 29.77 in 10.0 mi NW 21.9 mph 28.8 mph N/A   Partly Cloudy
9:55 PM 48.2 °F - 33.8 °F 58% 29.78 in 10.0 mi NW 18.4 mph 28.8 mph N/A   Clear
10:15 PM 46.4 °F 39.0 °F 33.8 °F 62% 29.78 in 10.0 mi NW 19.6 mph 27.6 mph N/A   Partly Cloudy
10:35 PM 46.4 °F 39.2 °F 35.6 °F 66% 29.78 in 10.0 mi NW 18.4 mph 24.2 mph N/A   Scattered Clouds
10:55 PM 46.4 °F 39.5 °F 33.8 °F 62% 29.78 in 10.0 mi NW 17.3 mph 25.3 mph N/A   Mostly Cloudy
11:15 PM 46.4 °F 39.2 °F 33.8 °F 62% 29.78 in 10.0 mi NW 18.4 mph 24.2 mph N/A   Mostly Cloudy
11:35 PM 46.4 °F 38.7 °F 33.8 °F 62% 29.78 in 9.0 mi NW 20.7 mph 25.3 mph N/A   Partly Cloudy
11:55 PM 46.4 °F 39.2 °F 33.8 °F 62% 29.78 in 10.0 mi NW 18.4 mph 27.6 mph N/A   Partly Cloudy